createdAt,value
2017-11-19T00:00:01.217Z,0
2017-11-19T00:00:41.793Z,0
2017-11-19T00:01:22.356Z,0
2017-11-19T00:02:02.913Z,0
2017-11-19T00:02:43.484Z,0
2017-11-19T00:03:24.050Z,0
2017-11-19T00:04:04.628Z,0
2017-11-19T00:04:45.203Z,0
2017-11-19T00:05:25.762Z,0
2017-11-19T00:06:06.342Z,0
2017-11-19T00:06:46.903Z,0
2017-11-19T00:07:27.506Z,0
2017-11-19T00:08:08.071Z,0
2017-11-19T00:08:48.641Z,0
2017-11-19T00:09:29.212Z,0
2017-11-19T00:10:09.775Z,0
2017-11-19T00:10:50.353Z,0
2017-11-19T00:11:30.949Z,0
2017-11-19T00:12:11.529Z,0
2017-11-19T00:12:52.169Z,0
2017-11-19T00:13:32.730Z,0
2017-11-19T00:14:13.328Z,0
2017-11-19T00:14:53.894Z,0
2017-11-19T00:15:34.471Z,0
2017-11-19T00:16:15.055Z,0
2017-11-19T00:16:55.646Z,0
2017-11-19T00:17:36.218Z,0
2017-11-19T00:18:16.817Z,0
2017-11-19T00:18:57.400Z,0
2017-11-19T00:19:37.981Z,0
2017-11-19T00:20:18.588Z,0
2017-11-19T00:20:59.175Z,0
2017-11-19T00:21:39.771Z,0
2017-11-19T00:22:20.345Z,0
2017-11-19T00:23:00.921Z,0
2017-11-19T00:23:41.680Z,0
2017-11-19T00:24:22.288Z,0
2017-11-19T00:25:02.959Z,0
2017-11-19T00:25:43.565Z,0
2017-11-19T00:26:24.159Z,0
2017-11-19T00:27:04.799Z,0
2017-11-19T00:27:45.362Z,0
2017-11-19T00:28:25.950Z,0
2017-11-19T00:29:06.522Z,0
2017-11-19T00:29:47.111Z,0
2017-11-19T00:30:27.742Z,0
2017-11-19T00:31:08.337Z,0
2017-11-19T00:31:48.951Z,0
2017-11-19T00:32:29.560Z,0
2017-11-19T00:33:10.239Z,0
2017-11-19T00:33:50.976Z,0
2017-11-19T00:34:31.700Z,0
2017-11-19T00:35:12.423Z,0
2017-11-19T00:35:53.152Z,0
2017-11-19T00:36:33.810Z,0
2017-11-19T00:37:14.499Z,0
2017-11-19T00:37:55.068Z,0
2017-11-19T00:38:35.809Z,0
2017-11-19T00:39:16.513Z,0
2017-11-19T00:39:57.129Z,0
2017-11-19T00:40:37.720Z,0
2017-11-19T00:41:18.321Z,0
2017-11-19T00:41:58.963Z,0
2017-11-19T00:42:39.569Z,0
2017-11-19T00:43:20.181Z,0
2017-11-19T00:44:01.036Z,0
2017-11-19T00:44:41.644Z,0
2017-11-19T00:45:22.212Z,0
2017-11-19T00:46:02.897Z,0
2017-11-19T00:46:43.513Z,0
2017-11-19T00:47:24.122Z,0
2017-11-19T00:48:04.699Z,0
2017-11-19T00:48:45.285Z,0
2017-11-19T00:49:25.902Z,0
2017-11-19T00:50:06.484Z,0
2017-11-19T00:50:47.060Z,0
2017-11-19T00:51:27.666Z,0
2017-11-19T00:52:08.231Z,0
2017-11-19T00:52:48.796Z,0
2017-11-19T00:53:29.374Z,0
2017-11-19T00:54:09.955Z,0
2017-11-19T00:54:50.546Z,0
2017-11-19T00:55:31.132Z,0
2017-11-19T00:56:11.761Z,0
2017-11-19T00:56:52.404Z,0
2017-11-19T00:57:33.009Z,0
2017-11-19T00:58:13.631Z,0
2017-11-19T00:58:54.318Z,0
2017-11-19T00:59:34.921Z,0
2017-11-19T01:00:15.474Z,0
2017-11-19T01:00:56.067Z,0
2017-11-19T01:01:36.701Z,0
2017-11-19T01:02:17.285Z,0
2017-11-19T01:02:57.874Z,0
2017-11-19T01:03:38.469Z,0
2017-11-19T01:04:19.071Z,0
2017-11-19T01:04:59.668Z,0
2017-11-19T01:05:40.272Z,0
2017-11-19T01:06:20.880Z,0
2017-11-19T01:07:01.532Z,0
2017-11-19T01:07:42.202Z,0
2017-11-19T01:08:22.815Z,0
2017-11-19T01:09:03.395Z,0
2017-11-19T01:09:44.040Z,0
2017-11-19T01:10:24.727Z,0
2017-11-19T01:11:05.314Z,0
2017-11-19T01:11:45.924Z,0
2017-11-19T01:12:26.559Z,0
2017-11-19T01:13:07.251Z,0
2017-11-19T01:13:47.902Z,0
2017-11-19T01:14:28.470Z,0
2017-11-19T01:15:09.062Z,0
2017-11-19T01:15:49.656Z,0
2017-11-19T01:16:30.251Z,0
2017-11-19T01:17:11.187Z,0
2017-11-19T01:17:51.901Z,0
2017-11-19T01:18:32.509Z,0
2017-11-19T01:19:13.089Z,0
2017-11-19T01:19:53.678Z,0
2017-11-19T01:20:34.241Z,0
2017-11-19T01:21:14.830Z,0
2017-11-19T01:21:55.440Z,0
2017-11-19T01:22:36.019Z,0
2017-11-19T01:23:16.604Z,0
2017-11-19T01:23:57.181Z,0
2017-11-19T01:24:37.755Z,0
2017-11-19T01:25:18.317Z,0
2017-11-19T01:25:58.904Z,0
2017-11-19T01:26:39.452Z,0
2017-11-19T01:27:20.021Z,0
2017-11-19T01:28:00.621Z,0
2017-11-19T01:28:41.190Z,0
2017-11-19T01:29:21.758Z,0
2017-11-19T01:30:02.329Z,0
2017-11-19T01:30:42.905Z,0
2017-11-19T01:31:23.471Z,0
2017-11-19T01:32:04.026Z,0
2017-11-19T01:32:44.599Z,0
2017-11-19T01:33:25.190Z,0
2017-11-19T01:34:05.764Z,0
2017-11-19T01:34:46.329Z,0
2017-11-19T01:35:26.938Z,0
2017-11-19T01:36:07.519Z,0
2017-11-19T01:36:48.080Z,0
2017-11-19T01:37:28.637Z,0
2017-11-19T01:38:09.231Z,0
2017-11-19T01:38:49.797Z,0
2017-11-19T01:39:30.376Z,0
2017-11-19T01:40:10.927Z,0
2017-11-19T01:40:51.487Z,0
2017-11-19T01:41:32.079Z,0
2017-11-19T01:42:12.641Z,0
2017-11-19T01:42:53.347Z,0
2017-11-19T01:43:33.916Z,0
2017-11-19T01:44:14.491Z,0
2017-11-19T01:44:55.050Z,0
2017-11-19T01:45:35.614Z,0
2017-11-19T01:46:16.219Z,0
2017-11-19T01:46:56.802Z,0
2017-11-19T01:47:37.357Z,0
2017-11-19T01:48:17.950Z,0
2017-11-19T01:48:58.499Z,0
2017-11-19T01:49:39.063Z,0
2017-11-19T01:50:19.643Z,0
2017-11-19T01:51:00.213Z,0
2017-11-19T01:51:40.781Z,0
2017-11-19T01:52:21.363Z,0
2017-11-19T01:53:01.951Z,0
2017-11-19T01:53:42.531Z,0
2017-11-19T01:54:23.116Z,0
2017-11-19T01:55:03.712Z,0
2017-11-19T01:55:44.283Z,0
2017-11-19T01:56:24.857Z,0
2017-11-19T01:57:05.432Z,0
2017-11-19T01:57:46.023Z,0
2017-11-19T01:58:26.575Z,0
2017-11-19T01:59:07.162Z,0
2017-11-19T01:59:47.720Z,0
2017-11-19T02:00:28.324Z,0
2017-11-19T02:01:08.908Z,0
2017-11-19T02:01:49.497Z,0
2017-11-19T02:02:30.091Z,0
2017-11-19T02:03:10.689Z,0
2017-11-19T02:03:51.270Z,0
2017-11-19T02:04:31.829Z,0
2017-11-19T02:05:12.489Z,0
2017-11-19T02:05:53.061Z,0
2017-11-19T02:06:33.626Z,0
2017-11-19T02:07:14.216Z,0
2017-11-19T02:07:54.786Z,0
2017-11-19T02:08:35.357Z,0
2017-11-19T02:09:15.962Z,0
2017-11-19T02:09:56.552Z,0
2017-11-19T02:10:37.123Z,0
2017-11-19T02:11:17.689Z,0
2017-11-19T02:11:58.277Z,0
2017-11-19T02:12:38.845Z,0
2017-11-19T02:13:19.422Z,0
2017-11-19T02:13:59.996Z,0
2017-11-19T02:14:40.588Z,0
2017-11-19T02:15:21.164Z,0
2017-11-19T02:16:01.768Z,0
2017-11-19T02:16:42.355Z,0
2017-11-19T02:17:22.960Z,0
2017-11-19T02:18:03.557Z,0
2017-11-19T02:18:44.116Z,0
2017-11-19T02:19:24.687Z,0
2017-11-19T02:20:05.294Z,0
2017-11-19T02:20:45.864Z,0
2017-11-19T02:21:26.436Z,0
2017-11-19T02:22:07.000Z,0
2017-11-19T02:22:47.552Z,0
2017-11-19T02:23:28.128Z,0
2017-11-19T02:24:08.690Z,0
2017-11-19T02:24:49.270Z,0
2017-11-19T02:25:29.839Z,0
2017-11-19T02:26:10.410Z,0
2017-11-19T02:26:50.981Z,0
2017-11-19T02:27:31.567Z,0
2017-11-19T02:28:12.160Z,0
2017-11-19T02:28:52.731Z,0
2017-11-19T02:29:33.307Z,0
2017-11-19T02:30:13.907Z,0
2017-11-19T02:30:54.610Z,0
2017-11-19T02:31:35.194Z,0
2017-11-19T02:32:15.754Z,0
2017-11-19T02:32:56.326Z,0
2017-11-19T02:33:36.896Z,0
2017-11-19T02:34:17.474Z,0
2017-11-19T02:34:58.063Z,0
2017-11-19T02:35:38.653Z,0
2017-11-19T02:36:19.221Z,0
2017-11-19T02:36:59.803Z,0
2017-11-19T02:37:40.395Z,0
2017-11-19T02:38:20.978Z,0
2017-11-19T02:39:01.543Z,0
2017-11-19T02:39:42.121Z,0
2017-11-19T02:40:22.673Z,0
2017-11-19T02:41:03.233Z,0
2017-11-19T02:41:43.796Z,0
2017-11-19T02:42:24.378Z,0
2017-11-19T02:43:04.953Z,0
2017-11-19T02:43:45.583Z,0
2017-11-19T02:44:26.172Z,0
2017-11-19T02:45:06.770Z,0
2017-11-19T02:45:47.355Z,0
2017-11-19T02:46:27.917Z,0
2017-11-19T02:47:08.479Z,0
2017-11-19T02:47:49.064Z,0
2017-11-19T02:48:29.666Z,0
2017-11-19T02:49:10.233Z,0
2017-11-19T02:49:50.788Z,0
2017-11-19T02:50:31.355Z,0
2017-11-19T02:51:11.944Z,0
2017-11-19T02:51:52.512Z,0
2017-11-19T02:52:33.092Z,0
2017-11-19T02:53:13.665Z,0
2017-11-19T02:53:54.255Z,0
2017-11-19T02:54:34.865Z,0
2017-11-19T02:55:15.446Z,0
2017-11-19T02:55:56.024Z,0
2017-11-19T02:56:36.620Z,0
2017-11-19T02:57:17.186Z,0
2017-11-19T02:57:57.801Z,0
2017-11-19T02:58:38.361Z,0
2017-11-19T02:59:18.922Z,0
2017-11-19T02:59:59.487Z,0
2017-11-19T03:00:40.073Z,0
2017-11-19T03:01:20.633Z,0
2017-11-19T03:02:01.208Z,0
2017-11-19T03:02:41.812Z,0
2017-11-19T03:03:22.364Z,0
2017-11-19T03:04:02.923Z,0
2017-11-19T03:04:43.486Z,0
2017-11-19T03:05:24.095Z,0
2017-11-19T03:06:04.707Z,0
2017-11-19T03:06:45.282Z,0
2017-11-19T03:07:25.881Z,0
2017-11-19T03:08:06.438Z,0
2017-11-19T03:08:47.015Z,0
2017-11-19T03:09:27.619Z,0
2017-11-19T03:10:08.196Z,0
2017-11-19T03:10:48.776Z,0
2017-11-19T03:11:29.361Z,0
2017-11-19T03:12:09.970Z,0
2017-11-19T03:12:50.568Z,0
2017-11-19T03:13:31.178Z,0
2017-11-19T03:14:11.752Z,0
2017-11-19T03:14:52.320Z,0
2017-11-19T03:15:32.906Z,0
2017-11-19T03:16:13.466Z,0
2017-11-19T03:16:54.020Z,0
2017-11-19T03:17:34.624Z,0
2017-11-19T03:18:15.208Z,0
2017-11-19T03:18:55.789Z,0
2017-11-19T03:19:36.353Z,0
2017-11-19T03:20:16.927Z,0
2017-11-19T03:20:57.527Z,0
2017-11-19T03:21:38.087Z,0
2017-11-19T03:22:18.637Z,0
2017-11-19T03:22:59.217Z,0
2017-11-19T03:23:39.766Z,0
2017-11-19T03:24:20.318Z,0
2017-11-19T03:25:00.933Z,0
2017-11-19T03:25:41.507Z,0
2017-11-19T03:26:22.077Z,0
2017-11-19T03:27:02.647Z,0
2017-11-19T03:27:43.209Z,0
2017-11-19T03:28:23.789Z,0
2017-11-19T03:29:04.360Z,0
2017-11-19T03:29:44.943Z,0
2017-11-19T03:30:25.511Z,0
2017-11-19T03:31:06.086Z,0
2017-11-19T03:31:46.651Z,0
2017-11-19T03:32:27.242Z,0
2017-11-19T03:33:07.847Z,0
2017-11-19T03:33:48.422Z,0
2017-11-19T03:34:28.997Z,0
2017-11-19T03:35:09.579Z,0
2017-11-19T03:35:50.142Z,0
2017-11-19T03:36:30.712Z,0
2017-11-19T03:37:11.304Z,0
2017-11-19T03:37:51.877Z,0
2017-11-19T03:38:32.467Z,0
2017-11-19T03:39:13.086Z,0
2017-11-19T03:39:53.665Z,0
2017-11-19T03:40:34.285Z,0
2017-11-19T03:41:14.839Z,0
2017-11-19T03:41:55.427Z,0
2017-11-19T03:42:36.029Z,0
2017-11-19T03:43:16.593Z,0
2017-11-19T03:43:57.154Z,0
2017-11-19T03:44:37.711Z,0
2017-11-19T03:45:18.286Z,0
2017-11-19T03:45:58.841Z,0
2017-11-19T03:46:39.421Z,0
2017-11-19T03:47:19.996Z,0
2017-11-19T03:48:00.559Z,0
2017-11-19T03:48:41.114Z,0
2017-11-19T03:49:21.688Z,0
2017-11-19T03:50:02.266Z,0
2017-11-19T03:50:42.854Z,0
2017-11-19T03:51:23.415Z,0
2017-11-19T03:52:03.976Z,0
2017-11-19T03:52:44.550Z,0
2017-11-19T03:53:25.139Z,0
2017-11-19T03:54:05.697Z,0
2017-11-19T03:54:46.261Z,0
2017-11-19T03:55:26.816Z,0
2017-11-19T03:56:07.391Z,0
2017-11-19T03:56:47.985Z,0
2017-11-19T03:57:28.578Z,0
2017-11-19T03:58:09.161Z,0
2017-11-19T03:58:49.746Z,0
2017-11-19T03:59:30.320Z,0
2017-11-19T04:00:10.905Z,0
2017-11-19T04:00:51.484Z,0
2017-11-19T04:01:32.060Z,0
2017-11-19T04:02:12.644Z,0
2017-11-19T04:02:53.217Z,0
2017-11-19T04:03:33.797Z,0
2017-11-19T04:04:14.373Z,0
2017-11-19T04:04:54.936Z,0
2017-11-19T04:05:35.492Z,0
2017-11-19T04:06:16.061Z,0
2017-11-19T04:06:56.620Z,0
2017-11-19T04:07:37.221Z,0
2017-11-19T04:08:17.778Z,0
2017-11-19T04:08:58.335Z,0
2017-11-19T04:09:38.918Z,0
2017-11-19T04:10:19.503Z,0
2017-11-19T04:11:00.098Z,0
2017-11-19T04:11:40.690Z,0
2017-11-19T04:12:21.311Z,0
2017-11-19T04:13:01.881Z,0
2017-11-19T04:13:42.459Z,0
2017-11-19T04:14:23.043Z,0
2017-11-19T04:15:03.599Z,0
2017-11-19T04:15:44.185Z,0
2017-11-19T04:16:24.768Z,0
2017-11-19T04:17:05.366Z,0
2017-11-19T04:17:45.957Z,0
2017-11-19T04:18:26.509Z,0
2017-11-19T04:19:07.089Z,0
2017-11-19T04:19:47.655Z,0
2017-11-19T04:20:28.215Z,0
2017-11-19T04:21:08.843Z,0
2017-11-19T04:21:49.433Z,0
2017-11-19T04:22:30.019Z,0
2017-11-19T04:23:10.592Z,0
2017-11-19T04:23:51.225Z,0
2017-11-19T04:24:31.826Z,0
2017-11-19T04:25:12.387Z,0
2017-11-19T04:25:52.986Z,0
2017-11-19T04:26:33.570Z,0
2017-11-19T04:27:14.145Z,0
2017-11-19T04:27:54.759Z,0
2017-11-19T04:28:35.276Z,0
2017-11-19T04:29:15.869Z,0
2017-11-19T04:29:56.505Z,0
2017-11-19T04:30:37.070Z,0
2017-11-19T04:31:17.648Z,0
2017-11-19T04:31:58.201Z,0
2017-11-19T04:32:38.816Z,0
2017-11-19T04:33:19.372Z,0
2017-11-19T04:33:59.934Z,0
2017-11-19T04:34:40.496Z,0
2017-11-19T04:35:21.086Z,0
2017-11-19T04:36:01.641Z,0
2017-11-19T04:36:42.218Z,0
2017-11-19T04:37:22.840Z,0
2017-11-19T04:38:03.393Z,0
2017-11-19T04:38:44.026Z,0
2017-11-19T04:39:24.605Z,0
2017-11-19T04:40:05.198Z,0
2017-11-19T04:40:45.800Z,0
2017-11-19T04:41:26.411Z,0
2017-11-19T04:42:07.026Z,0
2017-11-19T04:42:47.603Z,0
2017-11-19T04:43:28.164Z,0
2017-11-19T04:44:08.768Z,0
2017-11-19T04:44:49.359Z,0
2017-11-19T04:45:29.930Z,0
2017-11-19T04:46:10.495Z,0
2017-11-19T04:46:51.066Z,0
2017-11-19T04:47:31.652Z,0
2017-11-19T04:48:12.211Z,0
2017-11-19T04:48:52.780Z,0
2017-11-19T04:49:33.370Z,0
2017-11-19T04:50:13.964Z,0
2017-11-19T04:50:54.531Z,0
2017-11-19T04:51:35.126Z,0
2017-11-19T04:52:15.698Z,0
2017-11-19T04:52:56.294Z,0
2017-11-19T04:53:36.863Z,0
2017-11-19T04:54:17.428Z,0
2017-11-19T04:54:57.999Z,0
2017-11-19T04:55:38.569Z,0
2017-11-19T04:56:19.177Z,0
2017-11-19T04:56:59.761Z,0
2017-11-19T04:57:40.336Z,0
2017-11-19T04:58:20.917Z,0
2017-11-19T04:59:01.506Z,0
2017-11-19T04:59:42.108Z,0
2017-11-19T05:00:22.671Z,0
2017-11-19T05:01:03.269Z,0
2017-11-19T05:01:43.875Z,0
2017-11-19T05:02:24.453Z,0
2017-11-19T05:03:05.016Z,0
2017-11-19T05:03:45.593Z,0
2017-11-19T05:04:26.161Z,0
2017-11-19T05:05:06.744Z,0
2017-11-19T05:05:47.320Z,0
2017-11-19T05:06:27.896Z,0
2017-11-19T05:07:08.465Z,0
2017-11-19T05:07:49.032Z,0
2017-11-19T05:08:29.619Z,0
2017-11-19T05:09:10.205Z,0
2017-11-19T05:09:50.792Z,0
2017-11-19T05:10:31.444Z,0
2017-11-19T05:11:11.975Z,0
2017-11-19T05:11:52.559Z,0
2017-11-19T05:12:33.213Z,0
2017-11-19T05:13:13.813Z,0
2017-11-19T05:13:54.406Z,0
2017-11-19T05:14:35.015Z,0
2017-11-19T05:15:15.600Z,0
2017-11-19T05:15:56.172Z,0
2017-11-19T05:16:36.781Z,0
2017-11-19T05:17:17.298Z,0
2017-11-19T05:17:57.883Z,0
2017-11-19T05:18:38.485Z,0
2017-11-19T05:19:19.050Z,0
2017-11-19T05:19:59.622Z,0
2017-11-19T05:20:40.208Z,0
2017-11-19T05:21:20.793Z,0
2017-11-19T05:22:01.349Z,0
2017-11-19T05:22:41.918Z,0
2017-11-19T05:23:22.489Z,0
2017-11-19T05:24:03.052Z,0
2017-11-19T05:24:43.628Z,0
2017-11-19T05:25:24.193Z,0
2017-11-19T05:26:04.756Z,0
2017-11-19T05:26:45.321Z,0
2017-11-19T05:27:25.904Z,0
2017-11-19T05:28:06.480Z,0
2017-11-19T05:28:47.041Z,0
2017-11-19T05:29:27.626Z,0
2017-11-19T05:30:08.198Z,0
2017-11-19T05:30:48.779Z,0
2017-11-19T05:31:29.397Z,0
2017-11-19T05:32:09.994Z,0
2017-11-19T05:32:50.564Z,0
2017-11-19T05:33:31.146Z,0
2017-11-19T05:34:11.710Z,0
2017-11-19T05:34:52.302Z,0
2017-11-19T05:35:32.876Z,0
2017-11-19T05:36:13.469Z,0
2017-11-19T05:36:54.082Z,0
2017-11-19T05:37:34.645Z,0
2017-11-19T05:38:15.270Z,0
2017-11-19T05:38:55.843Z,0
2017-11-19T05:39:36.437Z,0
2017-11-19T05:40:17.008Z,0
2017-11-19T05:40:57.569Z,0
2017-11-19T05:41:38.137Z,0
2017-11-19T05:42:18.707Z,0
2017-11-19T05:42:59.280Z,0
2017-11-19T05:43:39.859Z,0
2017-11-19T05:44:20.419Z,0
2017-11-19T05:45:01.003Z,0
2017-11-19T05:45:41.588Z,0
2017-11-19T05:46:22.157Z,0
2017-11-19T05:47:02.747Z,0
2017-11-19T05:47:43.313Z,0
2017-11-19T05:48:23.939Z,0
2017-11-19T05:49:04.551Z,0
2017-11-19T05:49:45.117Z,0
2017-11-19T05:50:25.703Z,0
2017-11-19T05:51:06.268Z,0
2017-11-19T05:51:46.837Z,0
2017-11-19T05:52:27.418Z,0
2017-11-19T05:53:07.987Z,0
2017-11-19T05:53:48.575Z,0
2017-11-19T05:54:29.114Z,0
2017-11-19T05:55:09.689Z,0
2017-11-19T05:55:50.261Z,0
2017-11-19T05:56:30.836Z,0
2017-11-19T05:57:11.438Z,0
2017-11-19T05:57:52.000Z,0
2017-11-19T05:58:32.584Z,0
2017-11-19T05:59:13.138Z,0
2017-11-19T05:59:53.727Z,0
2017-11-19T06:00:34.307Z,0
2017-11-19T06:01:14.873Z,0
2017-11-19T06:01:55.496Z,0
2017-11-19T06:02:36.097Z,0
2017-11-19T06:03:16.667Z,0
2017-11-19T06:03:57.238Z,0
2017-11-19T06:04:37.805Z,0
2017-11-19T06:05:18.393Z,0
2017-11-19T06:05:58.994Z,0
2017-11-19T06:06:39.576Z,0
2017-11-19T06:07:20.227Z,0
2017-11-19T06:08:00.809Z,0
2017-11-19T06:08:41.376Z,0
2017-11-19T06:09:21.941Z,0
2017-11-19T06:10:02.511Z,0
2017-11-19T06:10:43.084Z,0
2017-11-19T06:11:23.677Z,0
2017-11-19T06:12:04.275Z,0
2017-11-19T06:12:44.858Z,0
2017-11-19T06:13:25.456Z,0
2017-11-19T06:14:06.033Z,0
2017-11-19T06:14:46.604Z,0
2017-11-19T06:15:27.167Z,0
2017-11-19T06:16:07.793Z,0
2017-11-19T06:16:48.361Z,0
2017-11-19T06:17:28.937Z,0
2017-11-19T06:18:09.514Z,0
2017-11-19T06:18:50.086Z,0
2017-11-19T06:19:30.693Z,0
2017-11-19T06:20:11.222Z,0
2017-11-19T06:20:51.808Z,0
2017-11-19T06:21:32.387Z,0
2017-11-19T06:22:12.952Z,0
2017-11-19T06:22:53.511Z,0
2017-11-19T06:23:34.076Z,0
2017-11-19T06:24:14.692Z,0
2017-11-19T06:24:55.320Z,0
2017-11-19T06:25:35.900Z,0
2017-11-19T06:26:16.470Z,0
2017-11-19T06:26:57.067Z,0
2017-11-19T06:27:37.627Z,0
2017-11-19T06:28:18.225Z,0
2017-11-19T06:28:58.830Z,0
2017-11-19T06:29:39.396Z,0
2017-11-19T06:30:19.986Z,0
2017-11-19T06:31:00.567Z,0
2017-11-19T06:31:41.137Z,0
2017-11-19T06:32:21.706Z,0
2017-11-19T06:33:02.263Z,0
2017-11-19T06:33:42.895Z,0
2017-11-19T06:34:23.483Z,0
2017-11-19T06:35:04.075Z,0
2017-11-19T06:35:44.666Z,0
2017-11-19T06:36:25.257Z,0
2017-11-19T06:37:05.883Z,0
2017-11-19T06:37:46.434Z,0
2017-11-19T06:38:27.042Z,0
2017-11-19T06:39:07.611Z,0
2017-11-19T06:39:48.167Z,0
2017-11-19T06:40:28.725Z,0
2017-11-19T06:41:09.297Z,0
2017-11-19T06:41:49.851Z,0
2017-11-19T06:42:30.439Z,0
2017-11-19T06:43:11.025Z,0
2017-11-19T06:43:51.593Z,0
2017-11-19T06:44:32.155Z,0
2017-11-19T06:45:12.715Z,0
2017-11-19T06:45:53.288Z,0
2017-11-19T06:46:33.864Z,0
2017-11-19T06:47:14.429Z,0
2017-11-19T06:47:55.005Z,0
2017-11-19T06:48:35.583Z,0
2017-11-19T06:49:16.198Z,0
2017-11-19T06:49:56.752Z,0
2017-11-19T06:50:37.336Z,0
2017-11-19T06:51:17.894Z,0
2017-11-19T06:51:58.456Z,0
2017-11-19T06:52:39.023Z,0
2017-11-19T06:53:19.591Z,0
2017-11-19T06:54:00.171Z,0
2017-11-19T06:54:40.725Z,0
2017-11-19T06:55:21.337Z,0
2017-11-19T06:56:01.907Z,0
2017-11-19T06:56:42.516Z,0
2017-11-19T06:57:23.074Z,0
2017-11-19T06:58:03.639Z,0
2017-11-19T06:58:44.231Z,0
2017-11-19T06:59:24.841Z,5
2017-11-19T07:00:05.413Z,0
2017-11-19T07:00:45.997Z,5
2017-11-19T07:01:26.608Z,5
2017-11-19T07:02:07.179Z,5
2017-11-19T07:02:47.768Z,5
2017-11-19T07:03:28.359Z,5
2017-11-19T07:04:09.233Z,10
2017-11-19T07:04:57.251Z,10
2017-11-19T07:05:37.878Z,10
2017-11-19T07:06:18.473Z,10
2017-11-19T07:06:59.085Z,10
2017-11-19T07:07:39.658Z,10
2017-11-19T07:08:20.228Z,10
2017-11-19T07:09:00.798Z,15
2017-11-19T07:09:41.386Z,15
2017-11-19T07:10:21.960Z,15
2017-11-19T07:11:02.545Z,20
2017-11-19T07:11:43.116Z,20
2017-11-19T07:12:23.688Z,20
2017-11-19T07:13:04.251Z,10
2017-11-19T07:13:44.818Z,10
2017-11-19T07:14:25.443Z,5
2017-11-19T07:15:05.984Z,5
2017-11-19T07:15:46.564Z,5
2017-11-19T07:16:27.150Z,5
2017-11-19T07:17:07.778Z,5
2017-11-19T07:17:48.360Z,5
2017-11-19T07:18:28.953Z,5
2017-11-19T07:19:09.567Z,5
2017-11-19T07:19:50.152Z,5
2017-11-19T07:20:30.721Z,5
2017-11-19T07:21:11.290Z,5
2017-11-19T07:21:51.890Z,5
2017-11-19T07:22:32.479Z,5
2017-11-19T07:23:13.066Z,5
2017-11-19T07:23:53.643Z,5
2017-11-19T07:24:34.212Z,5
2017-11-19T07:25:14.780Z,10
2017-11-19T07:25:55.352Z,10
2017-11-19T07:26:35.921Z,10
2017-11-19T07:27:16.505Z,10
2017-11-19T07:27:57.072Z,10
2017-11-19T07:28:37.639Z,10
2017-11-19T07:29:18.198Z,15
2017-11-19T07:29:58.780Z,15
2017-11-19T07:30:39.380Z,15
2017-11-19T07:31:19.951Z,10
2017-11-19T07:32:00.533Z,10
2017-11-19T07:32:41.174Z,10
2017-11-19T07:33:21.753Z,10
2017-11-19T07:34:02.351Z,10
2017-11-19T07:34:42.905Z,10
2017-11-19T07:35:23.473Z,15
2017-11-19T07:36:04.049Z,15
2017-11-19T07:36:44.628Z,15
2017-11-19T07:37:25.215Z,15
2017-11-19T07:38:05.812Z,15
2017-11-19T07:38:46.393Z,15
2017-11-19T07:39:26.961Z,15
2017-11-19T07:40:07.515Z,20
2017-11-19T07:40:48.080Z,25
2017-11-19T07:41:28.676Z,20
2017-11-19T07:42:09.267Z,25
2017-11-19T07:42:49.874Z,25
2017-11-19T07:43:30.482Z,30
2017-11-19T07:44:11.052Z,30
2017-11-19T07:44:51.658Z,35
2017-11-19T07:45:32.241Z,45
2017-11-19T07:46:12.826Z,55
2017-11-19T07:46:53.457Z,50
2017-11-19T07:47:34.149Z,45
2017-11-19T07:48:14.779Z,40
2017-11-19T07:48:55.347Z,50
2017-11-19T07:49:35.918Z,60
2017-11-19T07:50:16.482Z,65
2017-11-19T07:50:57.072Z,65
2017-11-19T07:51:37.671Z,65
2017-11-19T07:52:18.264Z,80
2017-11-19T07:52:58.847Z,80
2017-11-19T07:53:39.429Z,75
2017-11-19T07:54:20.008Z,50
2017-11-19T07:55:00.576Z,55
2017-11-19T07:55:41.151Z,50
2017-11-19T07:56:21.715Z,45
2017-11-19T07:57:03.064Z,50
2017-11-19T07:57:43.742Z,50
2017-11-19T07:58:24.273Z,55
2017-11-19T07:59:05.458Z,50
2017-11-19T07:59:46.458Z,40
2017-11-19T08:00:27.581Z,40
2017-11-19T08:01:08.171Z,35
2017-11-19T08:01:48.741Z,35
2017-11-19T08:02:29.333Z,35
2017-11-19T08:03:09.918Z,40
2017-11-19T08:03:50.483Z,40
2017-11-19T08:04:31.764Z,55
2017-11-19T08:05:12.604Z,50
2017-11-19T08:05:53.466Z,40
2017-11-19T08:06:34.530Z,30
2017-11-19T08:07:15.505Z,30
2017-11-19T08:07:56.411Z,35
2017-11-19T08:08:37.017Z,35
2017-11-19T08:09:17.594Z,40
2017-11-19T08:09:58.675Z,40
2017-11-19T08:10:39.383Z,45
2017-11-19T08:11:20.264Z,50
2017-11-19T08:12:00.841Z,55
2017-11-19T08:12:41.569Z,55
2017-11-19T08:13:22.152Z,60
2017-11-19T08:14:03.890Z,75
2017-11-19T08:14:44.460Z,70
2017-11-19T08:15:25.036Z,55
2017-11-19T08:16:05.622Z,65
2017-11-19T08:16:46.204Z,85
2017-11-19T08:17:26.782Z,85
2017-11-19T08:18:07.379Z,80
2017-11-19T08:18:47.952Z,50
2017-11-19T08:19:28.530Z,50
2017-11-19T08:20:09.131Z,55
2017-11-19T08:20:55.712Z,45
2017-11-19T08:21:37.614Z,50
2017-11-19T08:22:18.195Z,45
2017-11-19T08:22:58.778Z,35
2017-11-19T08:23:39.367Z,35
2017-11-19T08:24:19.976Z,35
2017-11-19T08:25:00.522Z,30
2017-11-19T08:25:41.168Z,35
2017-11-19T08:26:22.278Z,30
2017-11-19T08:27:02.854Z,35
2017-11-19T08:27:43.445Z,35
2017-11-19T08:28:24.057Z,40
2017-11-19T08:29:04.645Z,40
2017-11-19T08:29:45.245Z,35
2017-11-19T08:30:25.829Z,35
2017-11-19T08:31:06.408Z,40
2017-11-19T08:31:46.994Z,45
2017-11-19T08:32:27.565Z,45
2017-11-19T08:33:08.160Z,40
2017-11-19T08:33:49.000Z,45
2017-11-19T08:34:29.739Z,45
2017-11-19T08:35:10.337Z,35
2017-11-19T08:35:50.925Z,35
2017-11-19T08:36:31.504Z,35
2017-11-19T08:37:12.076Z,40
2017-11-19T08:37:52.669Z,45
2017-11-19T08:38:33.274Z,45
2017-11-19T08:39:13.852Z,50
2017-11-19T08:39:54.423Z,35
2017-11-19T08:40:35.050Z,35
2017-11-19T08:41:15.635Z,30
2017-11-19T08:41:56.223Z,30
2017-11-19T08:42:36.837Z,35
2017-11-19T08:43:17.420Z,35
2017-11-19T08:43:58.016Z,35
2017-11-19T08:44:38.642Z,40
2017-11-19T08:45:19.235Z,40
2017-11-19T08:45:59.832Z,40
2017-11-19T08:46:40.437Z,50
2017-11-19T08:47:20.999Z,50
2017-11-19T08:48:01.594Z,60
2017-11-19T08:48:42.218Z,55
2017-11-19T08:49:22.846Z,50
2017-11-19T08:50:03.436Z,35
2017-11-19T08:50:43.995Z,35
2017-11-19T08:51:24.565Z,40
2017-11-19T08:52:05.195Z,45
2017-11-19T08:52:45.796Z,45
2017-11-19T08:53:26.387Z,45
2017-11-19T08:54:07.026Z,45
2017-11-19T08:54:47.613Z,45
2017-11-19T08:55:28.259Z,45
2017-11-19T08:56:08.824Z,40
2017-11-19T08:56:49.428Z,40
2017-11-19T08:57:30.052Z,40
2017-11-19T08:58:10.654Z,30
2017-11-19T08:58:51.290Z,30
2017-11-19T08:59:31.892Z,35
2017-11-19T09:00:12.496Z,35
2017-11-19T09:00:53.220Z,35
2017-11-19T09:01:34.089Z,35
2017-11-19T09:02:14.731Z,35
2017-11-19T09:02:55.631Z,35
2017-11-19T09:03:36.147Z,40
2017-11-19T09:04:16.761Z,45
2017-11-19T09:04:57.368Z,40
2017-11-19T09:05:37.962Z,40
2017-11-19T09:06:18.552Z,40
2017-11-19T09:06:59.141Z,40
2017-11-19T09:07:39.722Z,40
2017-11-19T09:08:20.320Z,40
2017-11-19T09:09:00.913Z,40
2017-11-19T09:09:41.515Z,35
2017-11-19T09:10:22.121Z,35
2017-11-19T09:11:02.731Z,30
2017-11-19T09:11:43.294Z,25
2017-11-19T09:12:23.884Z,20
2017-11-19T09:13:04.455Z,25
2017-11-19T09:13:45.022Z,20
2017-11-19T09:14:25.600Z,20
2017-11-19T09:15:06.181Z,20
2017-11-19T09:15:46.781Z,20
2017-11-19T09:16:27.383Z,20
2017-11-19T09:17:07.958Z,20
2017-11-19T09:17:48.537Z,20
2017-11-19T09:18:29.128Z,20
2017-11-19T09:19:09.758Z,20
2017-11-19T09:19:50.362Z,20
2017-11-19T09:20:30.969Z,25
2017-11-19T09:21:11.567Z,20
2017-11-19T09:21:52.147Z,25
2017-11-19T09:22:32.742Z,25
2017-11-19T09:23:13.348Z,25
2017-11-19T09:23:53.935Z,30
2017-11-19T09:24:34.509Z,30
2017-11-19T09:25:15.092Z,25
2017-11-19T09:25:55.661Z,25
2017-11-19T09:26:36.224Z,25
2017-11-19T09:27:16.790Z,30
2017-11-19T09:27:57.366Z,30
2017-11-19T09:28:37.918Z,30
2017-11-19T09:29:18.487Z,30
2017-11-19T09:31:46.651Z,20
2017-11-19T09:32:27.219Z,20
2017-11-19T09:33:07.807Z,20
2017-11-19T09:33:48.365Z,20
2017-11-19T09:34:28.949Z,15
2017-11-19T09:35:09.515Z,15
2017-11-19T09:35:50.096Z,15
2017-11-19T09:36:30.683Z,15
2017-11-19T09:37:11.274Z,15
2017-11-19T09:37:51.893Z,20
2017-11-19T09:38:32.431Z,20
2017-11-19T09:39:13.010Z,20
2017-11-19T09:39:53.595Z,20
2017-11-19T09:40:34.155Z,20
2017-11-19T09:41:14.718Z,15
2017-11-19T09:41:55.281Z,20
2017-11-19T09:42:35.843Z,15
2017-11-19T09:43:16.417Z,15
2017-11-19T09:43:56.994Z,15
2017-11-19T09:44:38.150Z,15
2017-11-19T09:45:18.723Z,15
2017-11-19T09:45:59.285Z,15
2017-11-19T09:46:39.847Z,15
2017-11-19T09:47:20.406Z,15
2017-11-19T09:48:00.956Z,15
2017-11-19T09:48:41.591Z,15
2017-11-19T09:49:22.183Z,20
2017-11-19T09:50:03.558Z,25
2017-11-19T09:50:44.232Z,25
2017-11-19T09:51:24.806Z,25
2017-11-19T09:52:05.383Z,25
2017-11-19T09:52:49.699Z,25
2017-11-19T09:53:33.136Z,25
2017-11-19T09:54:13.724Z,30
2017-11-19T09:54:54.316Z,25
2017-11-19T09:55:34.880Z,25
2017-11-19T09:56:15.449Z,20